sensor_id;sensor_type;location;lat;lon;timestamp;P1;durP1;ratioP1;P2;durP2;ratioP2
69789;SDS011;57064;52.046;4.800;2022-11-20T00:00:55;23.00;;;9.53;;
69789;SDS011;57064;52.046;4.800;2022-11-20T00:03:21;24.77;;;11.67;;
69789;SDS011;57064;52.046;4.800;2022-11-20T00:05:47;24.30;;;10.70;;
69789;SDS011;57064;52.046;4.800;2022-11-20T00:08:13;23.77;;;10.87;;
69789;SDS011;57064;52.046;4.800;2022-11-20T00:10:39;21.83;;;10.93;;
69789;SDS011;57064;52.046;4.800;2022-11-20T00:13:06;23.77;;;12.07;;
69789;SDS011;57064;52.046;4.800;2022-11-20T00:15:33;29.10;;;12.30;;
69789;SDS011;57064;52.046;4.800;2022-11-20T00:17:59;23.33;;;10.87;;
69789;SDS011;57064;52.046;4.800;2022-11-20T00:20:25;26.27;;;11.60;;
69789;SDS011;57064;52.046;4.800;2022-11-20T00:22:52;27.90;;;12.07;;
69789;SDS011;57064;52.046;4.800;2022-11-20T00:25:18;28.40;;;12.93;;
69789;SDS011;57064;52.046;4.800;2022-11-20T00:27:44;27.30;;;12.67;;
69789;SDS011;57064;52.046;4.800;2022-11-20T00:30:10;26.80;;;12.03;;
69789;SDS011;57064;52.046;4.800;2022-11-20T00:32:36;28.20;;;11.70;;
69789;SDS011;57064;52.046;4.800;2022-11-20T00:35:02;26.93;;;12.30;;
69789;SDS011;57064;52.046;4.800;2022-11-20T00:37:29;30.10;;;12.87;;
69789;SDS011;57064;52.046;4.800;2022-11-20T00:39:55;30.27;;;12.97;;
69789;SDS011;57064;52.046;4.800;2022-11-20T00:42:21;30.60;;;12.67;;
69789;SDS011;57064;52.046;4.800;2022-11-20T00:44:47;27.70;;;11.87;;
69789;SDS011;57064;52.046;4.800;2022-11-20T00:47:13;30.40;;;12.00;;
69789;SDS011;57064;52.046;4.800;2022-11-20T00:49:39;26.87;;;12.40;;
69789;SDS011;57064;52.046;4.800;2022-11-20T00:52:05;30.47;;;13.10;;
69789;SDS011;57064;52.046;4.800;2022-11-20T00:54:31;26.60;;;11.03;;
69789;SDS011;57064;52.046;4.800;2022-11-20T00:56:57;25.10;;;12.53;;
69789;SDS011;57064;52.046;4.800;2022-11-20T00:59:23;28.07;;;12.67;;
69789;SDS011;57064;52.046;4.800;2022-11-20T01:01:49;26.33;;;11.47;;
69789;SDS011;57064;52.046;4.800;2022-11-20T01:04:15;27.90;;;11.33;;
69789;SDS011;57064;52.046;4.800;2022-11-20T01:06:41;25.50;;;12.33;;
69789;SDS011;57064;52.046;4.800;2022-11-20T01:09:09;26.97;;;12.70;;
69789;SDS011;57064;52.046;4.800;2022-11-20T01:11:38;22.87;;;11.40;;
69789;SDS011;57064;52.046;4.800;2022-11-20T01:14:06;27.03;;;12.93;;
69789;SDS011;57064;52.046;4.800;2022-11-20T01:16:45;26.53;;;12.03;;
69789;SDS011;57064;52.046;4.800;2022-11-20T01:19:16;26.93;;;11.73;;
69789;SDS011;57064;52.046;4.800;2022-11-20T01:21:45;27.40;;;11.90;;
69789;SDS011;57064;52.046;4.800;2022-11-20T01:24:14;29.70;;;13.47;;
69789;SDS011;57064;52.046;4.800;2022-11-20T01:26:43;25.63;;;12.03;;
69789;SDS011;57064;52.046;4.800;2022-11-20T01:29:12;30.03;;;12.70;;
69789;SDS011;57064;52.046;4.800;2022-11-20T01:31:41;30.90;;;12.03;;
69789;SDS011;57064;52.046;4.800;2022-11-20T01:34:12;25.10;;;12.00;;
69789;SDS011;57064;52.046;4.800;2022-11-20T01:36:40;25.90;;;12.70;;
69789;SDS011;57064;52.046;4.800;2022-11-20T01:39:10;27.77;;;12.27;;
69789;SDS011;57064;52.046;4.800;2022-11-20T01:41:40;21.13;;;10.63;;
69789;SDS011;57064;52.046;4.800;2022-11-20T01:47:35;26.83;;;11.57;;
69789;SDS011;57064;52.046;4.800;2022-11-20T01:50:21;26.03;;;12.47;;
69789;SDS011;57064;52.046;4.800;2022-11-20T01:52:54;28.53;;;12.73;;
69789;SDS011;57064;52.046;4.800;2022-11-20T01:55:34;27.37;;;13.27;;
69789;SDS011;57064;52.046;4.800;2022-11-20T01:58:04;31.57;;;12.90;;
69789;SDS011;57064;52.046;4.800;2022-11-20T02:00:31;28.13;;;14.43;;
69789;SDS011;57064;52.046;4.800;2022-11-20T02:02:58;31.00;;;13.13;;
69789;SDS011;57064;52.046;4.800;2022-11-20T02:05:50;25.73;;;11.10;;
69789;SDS011;57064;52.046;4.800;2022-11-20T02:08:20;26.70;;;11.50;;
69789;SDS011;57064;52.046;4.800;2022-11-20T02:10:48;26.80;;;12.60;;
69789;SDS011;57064;52.046;4.800;2022-11-20T02:13:14;30.77;;;13.57;;
69789;SDS011;57064;52.046;4.800;2022-11-20T02:15:59;25.80;;;11.67;;
69789;SDS011;57064;52.046;4.800;2022-11-20T02:18:26;25.30;;;12.23;;
69789;SDS011;57064;52.046;4.800;2022-11-20T02:20:59;26.93;;;12.57;;
69789;SDS011;57064;52.046;4.800;2022-11-20T02:26:31;25.00;;;10.50;;
69789;SDS011;57064;52.046;4.800;2022-11-20T02:29:03;27.47;;;10.33;;
69789;SDS011;57064;52.046;4.800;2022-11-20T02:31:29;23.90;;;9.70;;
69789;SDS011;57064;52.046;4.800;2022-11-20T02:33:59;24.10;;;10.90;;
69789;SDS011;57064;52.046;4.800;2022-11-20T02:36:26;25.67;;;11.87;;
69789;SDS011;57064;52.046;4.800;2022-11-20T02:38:53;27.33;;;12.70;;
69789;SDS011;57064;52.046;4.800;2022-11-20T02:41:19;29.40;;;12.57;;
69789;SDS011;57064;52.046;4.800;2022-11-20T02:43:45;26.70;;;12.43;;
69789;SDS011;57064;52.046;4.800;2022-11-20T02:46:11;27.30;;;12.50;;
69789;SDS011;57064;52.046;4.800;2022-11-20T02:48:38;28.93;;;11.30;;
69789;SDS011;57064;52.046;4.800;2022-11-20T02:51:04;26.43;;;11.10;;
69789;SDS011;57064;52.046;4.800;2022-11-20T02:53:30;31.10;;;11.33;;
69789;SDS011;57064;52.046;4.800;2022-11-20T02:55:56;27.60;;;12.10;;
69789;SDS011;57064;52.046;4.800;2022-11-20T02:58:22;30.60;;;12.47;;
69789;SDS011;57064;52.046;4.800;2022-11-20T03:00:48;25.77;;;11.17;;
69789;SDS011;57064;52.046;4.800;2022-11-20T03:03:14;30.20;;;11.70;;
69789;SDS011;57064;52.046;4.800;2022-11-20T03:05:40;26.20;;;11.13;;
69789;SDS011;57064;52.046;4.800;2022-11-20T03:08:06;26.47;;;11.33;;
69789;SDS011;57064;52.046;4.800;2022-11-20T03:10:32;25.83;;;11.77;;
69789;SDS011;57064;52.046;4.800;2022-11-20T03:12:58;28.03;;;11.87;;
69789;SDS011;57064;52.046;4.800;2022-11-20T03:15:24;28.17;;;11.17;;
69789;SDS011;57064;52.046;4.800;2022-11-20T03:17:53;22.50;;;10.80;;
69789;SDS011;57064;52.046;4.800;2022-11-20T03:20:20;24.83;;;11.23;;
69789;SDS011;57064;52.046;4.800;2022-11-20T03:22:47;30.70;;;10.90;;
69789;SDS011;57064;52.046;4.800;2022-11-20T03:25:13;32.23;;;11.47;;
69789;SDS011;57064;52.046;4.800;2022-11-20T03:27:39;28.90;;;12.87;;
69789;SDS011;57064;52.046;4.800;2022-11-20T03:30:05;24.37;;;11.07;;
69789;SDS011;57064;52.046;4.800;2022-11-20T03:32:31;23.80;;;10.47;;
69789;SDS011;57064;52.046;4.800;2022-11-20T03:34:57;25.70;;;11.90;;
69789;SDS011;57064;52.046;4.800;2022-11-20T03:37:24;27.97;;;12.10;;
69789;SDS011;57064;52.046;4.800;2022-11-20T03:39:50;26.93;;;12.33;;
69789;SDS011;57064;52.046;4.800;2022-11-20T03:42:16;29.60;;;12.07;;
69789;SDS011;57064;52.046;4.800;2022-11-20T03:45:00;25.27;;;11.00;;
69789;SDS011;57064;52.046;4.800;2022-11-20T03:47:26;27.73;;;12.17;;
69789;SDS011;57064;52.046;4.800;2022-11-20T03:49:52;25.47;;;11.67;;
69789;SDS011;57064;52.046;4.800;2022-11-20T03:52:19;23.83;;;10.93;;
69789;SDS011;57064;52.046;4.800;2022-11-20T03:54:45;27.03;;;11.60;;
69789;SDS011;57064;52.046;4.800;2022-11-20T03:57:11;24.87;;;11.87;;
69789;SDS011;57064;52.046;4.800;2022-11-20T03:59:37;24.07;;;10.83;;
69789;SDS011;57064;52.046;4.800;2022-11-20T04:02:03;25.40;;;11.10;;
69789;SDS011;57064;52.046;4.800;2022-11-20T04:04:29;25.00;;;10.37;;
69789;SDS011;57064;52.046;4.800;2022-11-20T04:06:55;24.87;;;11.10;;
69789;SDS011;57064;52.046;4.800;2022-11-20T04:09:21;24.43;;;10.67;;
69789;SDS011;57064;52.046;4.800;2022-11-20T04:11:47;29.70;;;12.07;;
69789;SDS011;57064;52.046;4.800;2022-11-20T04:14:14;26.93;;;11.73;;
69789;SDS011;57064;52.046;4.800;2022-11-20T04:16:41;26.53;;;11.20;;
69789;SDS011;57064;52.046;4.800;2022-11-20T04:19:11;26.13;;;12.07;;
69789;SDS011;57064;52.046;4.800;2022-11-20T04:21:39;27.67;;;11.77;;
69789;SDS011;57064;52.046;4.800;2022-11-20T04:24:06;22.90;;;11.60;;
69789;SDS011;57064;52.046;4.800;2022-11-20T04:26:33;32.00;;;13.27;;
69789;SDS011;57064;52.046;4.800;2022-11-20T04:28:59;25.73;;;10.93;;
69789;SDS011;57064;52.046;4.800;2022-11-20T04:31:31;26.83;;;11.43;;
69789;SDS011;57064;52.046;4.800;2022-11-20T04:33:59;28.43;;;11.77;;
69789;SDS011;57064;52.046;4.800;2022-11-20T04:36:26;26.57;;;10.93;;
69789;SDS011;57064;52.046;4.800;2022-11-20T04:38:55;27.63;;;10.77;;
69789;SDS011;57064;52.046;4.800;2022-11-20T04:41:24;29.97;;;11.43;;
69789;SDS011;57064;52.046;4.800;2022-11-20T04:43:52;26.03;;;11.07;;
69789;SDS011;57064;52.046;4.800;2022-11-20T04:46:24;27.05;;;10.75;;
69789;SDS011;57064;52.046;4.800;2022-11-20T04:48:51;28.27;;;11.40;;
69789;SDS011;57064;52.046;4.800;2022-11-20T04:51:18;24.13;;;11.47;;
69789;SDS011;57064;52.046;4.800;2022-11-20T04:53:44;30.13;;;12.23;;
69789;SDS011;57064;52.046;4.800;2022-11-20T04:56:11;25.97;;;10.97;;
69789;SDS011;57064;52.046;4.800;2022-11-20T04:58:38;27.40;;;10.80;;
69789;SDS011;57064;52.046;4.800;2022-11-20T05:01:06;23.30;;;11.23;;
69789;SDS011;57064;52.046;4.800;2022-11-20T05:03:34;27.77;;;11.53;;
69789;SDS011;57064;52.046;4.800;2022-11-20T05:06:01;32.07;;;11.97;;
69789;SDS011;57064;52.046;4.800;2022-11-20T05:08:29;30.10;;;11.90;;
69789;SDS011;57064;52.046;4.800;2022-11-20T05:11:02;30.03;;;12.67;;
69789;SDS011;57064;52.046;4.800;2022-11-20T05:13:39;27.10;;;10.27;;
69789;SDS011;57064;52.046;4.800;2022-11-20T05:16:06;24.37;;;11.23;;
69789;SDS011;57064;52.046;4.800;2022-11-20T05:18:34;23.50;;;11.30;;
69789;SDS011;57064;52.046;4.800;2022-11-20T05:21:01;24.63;;;10.67;;
69789;SDS011;57064;52.046;4.800;2022-11-20T05:23:27;27.93;;;12.10;;
69789;SDS011;57064;52.046;4.800;2022-11-20T05:25:55;24.53;;;10.97;;
69789;SDS011;57064;52.046;4.800;2022-11-20T05:28:22;30.20;;;12.77;;
69789;SDS011;57064;52.046;4.800;2022-11-20T05:30:48;29.37;;;12.17;;
69789;SDS011;57064;52.046;4.800;2022-11-20T05:33:14;32.40;;;13.27;;
69789;SDS011;57064;52.046;4.800;2022-11-20T05:35:41;27.00;;;11.80;;
69789;SDS011;57064;52.046;4.800;2022-11-20T05:38:07;32.10;;;13.00;;
69789;SDS011;57064;52.046;4.800;2022-11-20T05:40:33;30.13;;;13.13;;
69789;SDS011;57064;52.046;4.800;2022-11-20T05:43:00;30.43;;;12.53;;
69789;SDS011;57064;52.046;4.800;2022-11-20T05:45:26;30.57;;;13.00;;
69789;SDS011;57064;52.046;4.800;2022-11-20T05:47:52;32.97;;;13.53;;
69789;SDS011;57064;52.046;4.800;2022-11-20T05:50:18;32.20;;;12.63;;
69789;SDS011;57064;52.046;4.800;2022-11-20T05:52:44;28.33;;;13.43;;
69789;SDS011;57064;52.046;4.800;2022-11-20T05:55:10;32.47;;;13.80;;
69789;SDS011;57064;52.046;4.800;2022-11-20T05:57:36;32.13;;;12.63;;
69789;SDS011;57064;52.046;4.800;2022-11-20T06:00:03;31.53;;;12.93;;
69789;SDS011;57064;52.046;4.800;2022-11-20T06:02:29;31.20;;;13.10;;
69789;SDS011;57064;52.046;4.800;2022-11-20T06:04:55;29.20;;;13.40;;
69789;SDS011;57064;52.046;4.800;2022-11-20T06:07:21;32.53;;;13.73;;
69789;SDS011;57064;52.046;4.800;2022-11-20T06:09:47;26.67;;;12.23;;
69789;SDS011;57064;52.046;4.800;2022-11-20T06:12:13;32.30;;;14.10;;
69789;SDS011;57064;52.046;4.800;2022-11-20T06:14:39;26.37;;;13.27;;
69789;SDS011;57064;52.046;4.800;2022-11-20T06:17:05;33.00;;;15.03;;
69789;SDS011;57064;52.046;4.800;2022-11-20T06:19:31;36.00;;;13.90;;
69789;SDS011;57064;52.046;4.800;2022-11-20T06:21:57;34.63;;;14.37;;
69789;SDS011;57064;52.046;4.800;2022-11-20T06:24:23;34.93;;;14.87;;
69789;SDS011;57064;52.046;4.800;2022-11-20T06:26:50;31.43;;;14.23;;
69789;SDS011;57064;52.046;4.800;2022-11-20T06:29:16;32.37;;;12.97;;
69789;SDS011;57064;52.046;4.800;2022-11-20T06:31:42;30.90;;;13.83;;
69789;SDS011;57064;52.046;4.800;2022-11-20T06:34:08;35.37;;;14.20;;
69789;SDS011;57064;52.046;4.800;2022-11-20T06:36:34;34.30;;;15.13;;
69789;SDS011;57064;52.046;4.800;2022-11-20T06:39:01;35.27;;;15.27;;
69789;SDS011;57064;52.046;4.800;2022-11-20T06:41:27;34.03;;;17.17;;
69789;SDS011;57064;52.046;4.800;2022-11-20T06:43:53;32.60;;;15.87;;
69789;SDS011;57064;52.046;4.800;2022-11-20T06:46:19;37.80;;;15.30;;
69789;SDS011;57064;52.046;4.800;2022-11-20T06:48:46;31.73;;;14.13;;
69789;SDS011;57064;52.046;4.800;2022-11-20T06:51:13;28.03;;;11.77;;
69789;SDS011;57064;52.046;4.800;2022-11-20T06:53:39;34.63;;;15.13;;
69789;SDS011;57064;52.046;4.800;2022-11-20T06:56:06;32.37;;;13.70;;
69789;SDS011;57064;52.046;4.800;2022-11-20T06:58:32;34.00;;;15.13;;
69789;SDS011;57064;52.046;4.800;2022-11-20T07:01:00;30.53;;;14.20;;
69789;SDS011;57064;52.046;4.800;2022-11-20T07:03:28;40.93;;;16.40;;
69789;SDS011;57064;52.046;4.800;2022-11-20T07:05:57;34.53;;;14.40;;
69789;SDS011;57064;52.046;4.800;2022-11-20T07:08:25;32.43;;;14.03;;
69789;SDS011;57064;52.046;4.800;2022-11-20T07:10:51;44.20;;;16.57;;
69789;SDS011;57064;52.046;4.800;2022-11-20T07:13:17;37.03;;;14.83;;
69789;SDS011;57064;52.046;4.800;2022-11-20T07:15:43;38.37;;;15.67;;
69789;SDS011;57064;52.046;4.800;2022-11-20T07:18:09;41.17;;;17.23;;
69789;SDS011;57064;52.046;4.800;2022-11-20T07:20:36;38.17;;;16.40;;
69789;SDS011;57064;52.046;4.800;2022-11-20T07:23:02;36.80;;;16.73;;
69789;SDS011;57064;52.046;4.800;2022-11-20T07:25:28;41.67;;;17.00;;
69789;SDS011;57064;52.046;4.800;2022-11-20T07:27:58;34.37;;;15.40;;
69789;SDS011;57064;52.046;4.800;2022-11-20T07:30:25;35.90;;;15.27;;
69789;SDS011;57064;52.046;4.800;2022-11-20T07:32:55;41.73;;;15.83;;
69789;SDS011;57064;52.046;4.800;2022-11-20T07:35:22;39.93;;;15.63;;
69789;SDS011;57064;52.046;4.800;2022-11-20T07:37:50;38.93;;;15.10;;
69789;SDS011;57064;52.046;4.800;2022-11-20T07:40:16;39.53;;;16.40;;
69789;SDS011;57064;52.046;4.800;2022-11-20T07:42:50;33.53;;;15.53;;
69789;SDS011;57064;52.046;4.800;2022-11-20T07:45:17;34.57;;;15.83;;
69789;SDS011;57064;52.046;4.800;2022-11-20T07:47:44;41.03;;;16.70;;
69789;SDS011;57064;52.046;4.800;2022-11-20T07:50:10;38.42;;;15.98;;
69789;SDS011;57064;52.046;4.800;2022-11-20T07:52:37;37.28;;;16.88;;
69789;SDS011;57064;52.046;4.800;2022-11-20T07:55:03;37.30;;;15.13;;
69789;SDS011;57064;52.046;4.800;2022-11-20T07:57:30;37.55;;;17.40;;
69789;SDS011;57064;52.046;4.800;2022-11-20T07:59:56;41.58;;;17.75;;
69789;SDS011;57064;52.046;4.800;2022-11-20T08:02:23;39.97;;;18.15;;
69789;SDS011;57064;52.046;4.800;2022-11-20T08:04:49;39.05;;;16.67;;
69789;SDS011;57064;52.046;4.800;2022-11-20T08:07:15;40.38;;;17.25;;
69789;SDS011;57064;52.046;4.800;2022-11-20T08:09:41;40.15;;;17.52;;
69789;SDS011;57064;52.046;4.800;2022-11-20T08:12:07;44.23;;;18.37;;
69789;SDS011;57064;52.046;4.800;2022-11-20T08:14:51;45.22;;;20.08;;
69789;SDS011;57064;52.046;4.800;2022-11-20T08:17:17;45.17;;;19.20;;
69789;SDS011;57064;52.046;4.800;2022-11-20T08:19:43;46.90;;;18.60;;
69789;SDS011;57064;52.046;4.800;2022-11-20T08:22:09;46.47;;;20.45;;
69789;SDS011;57064;52.046;4.800;2022-11-20T08:24:35;46.85;;;20.25;;
69789;SDS011;57064;52.046;4.800;2022-11-20T08:27:01;42.22;;;18.98;;
69789;SDS011;57064;52.046;4.800;2022-11-20T08:29:27;42.85;;;20.20;;
69789;SDS011;57064;52.046;4.800;2022-11-20T08:31:53;38.38;;;18.38;;
69789;SDS011;57064;52.046;4.800;2022-11-20T08:34:19;54.55;;;19.98;;
69789;SDS011;57064;52.046;4.800;2022-11-20T08:36:45;47.35;;;20.10;;
69789;SDS011;57064;52.046;4.800;2022-11-20T08:39:12;51.35;;;21.35;;
69789;SDS011;57064;52.046;4.800;2022-11-20T08:41:38;46.50;;;22.05;;
69789;SDS011;57064;52.046;4.800;2022-11-20T08:44:05;46.53;;;21.77;;
69789;SDS011;57064;52.046;4.800;2022-11-20T08:46:32;46.78;;;21.92;;
69789;SDS011;57064;52.046;4.800;2022-11-20T08:49:02;54.15;;;24.05;;
69789;SDS011;57064;52.046;4.800;2022-11-20T08:51:32;50.40;;;22.58;;
69789;SDS011;57064;52.046;4.800;2022-11-20T08:53:58;56.85;;;25.38;;
69789;SDS011;57064;52.046;4.800;2022-11-20T08:56:24;53.42;;;24.02;;
69789;SDS011;57064;52.046;4.800;2022-11-20T08:58:50;53.25;;;23.38;;
69789;SDS011;57064;52.046;4.800;2022-11-20T09:01:17;52.45;;;23.27;;
69789;SDS011;57064;52.046;4.800;2022-11-20T09:03:44;60.53;;;26.48;;
69789;SDS011;57064;52.046;4.800;2022-11-20T09:06:11;49.53;;;23.30;;
69789;SDS011;57064;52.046;4.800;2022-11-20T09:08:37;47.03;;;21.90;;
69789;SDS011;57064;52.046;4.800;2022-11-20T09:11:03;63.25;;;25.60;;
69789;SDS011;57064;52.046;4.800;2022-11-20T09:13:30;54.50;;;22.50;;
69789;SDS011;57064;52.046;4.800;2022-11-20T09:15:57;50.25;;;23.33;;
69789;SDS011;57064;52.046;4.800;2022-11-20T09:18:25;48.45;;;22.63;;
69789;SDS011;57064;52.046;4.800;2022-11-20T09:20:55;52.58;;;23.27;;
69789;SDS011;57064;52.046;4.800;2022-11-20T09:23:23;54.05;;;25.17;;
69789;SDS011;57064;52.046;4.800;2022-11-20T09:25:50;52.47;;;24.48;;
69789;SDS011;57064;52.046;4.800;2022-11-20T09:28:16;49.97;;;23.77;;
69789;SDS011;57064;52.046;4.800;2022-11-20T09:30:43;52.70;;;23.92;;
69789;SDS011;57064;52.046;4.800;2022-11-20T09:33:09;54.17;;;24.77;;
69789;SDS011;57064;52.046;4.800;2022-11-20T09:35:35;58.92;;;26.63;;
69789;SDS011;57064;52.046;4.800;2022-11-20T09:38:05;56.25;;;26.48;;
69789;SDS011;57064;52.046;4.800;2022-11-20T09:40:32;49.83;;;24.58;;
69789;SDS011;57064;52.046;4.800;2022-11-20T09:48:40;51.30;;;23.38;;
69789;SDS011;57064;52.046;4.800;2022-11-20T09:54:09;53.00;;;25.35;;
69789;SDS011;57064;52.046;4.800;2022-11-20T09:56:39;56.20;;;25.88;;
69789;SDS011;57064;52.046;4.800;2022-11-20T09:59:11;55.35;;;25.48;;
69789;SDS011;57064;52.046;4.800;2022-11-20T10:01:48;54.88;;;25.95;;
69789;SDS011;57064;52.046;4.800;2022-11-20T10:04:18;51.35;;;25.25;;
69789;SDS011;57064;52.046;4.800;2022-11-20T10:09:40;58.50;;;25.02;;
69789;SDS011;57064;52.046;4.800;2022-11-20T10:20:36;57.80;;;24.33;;
69789;SDS011;57064;52.046;4.800;2022-11-20T10:23:14;57.60;;;27.05;;
69789;SDS011;57064;52.046;4.800;2022-11-20T10:26:02;52.40;;;25.17;;
69789;SDS011;57064;52.046;4.800;2022-11-20T10:31:38;49.30;;;24.33;;
69789;SDS011;57064;52.046;4.800;2022-11-20T10:37:09;55.70;;;25.25;;
69789;SDS011;57064;52.046;4.800;2022-11-20T10:42:29;48.95;;;24.80;;
69789;SDS011;57064;52.046;4.800;2022-11-20T10:45:43;49.50;;;25.42;;
69789;SDS011;57064;52.046;4.800;2022-11-20T10:48:21;53.33;;;24.20;;
69789;SDS011;57064;52.046;4.800;2022-11-20T10:50:58;52.35;;;24.67;;
69789;SDS011;57064;52.046;4.800;2022-11-20T10:53:40;54.70;;;27.05;;
69789;SDS011;57064;52.046;4.800;2022-11-20T10:56:20;51.10;;;24.42;;
69789;SDS011;57064;52.046;4.800;2022-11-20T10:59:15;55.70;;;25.33;;
69789;SDS011;57064;52.046;4.800;2022-11-20T11:01:44;54.30;;;24.77;;
69789;SDS011;57064;52.046;4.800;2022-11-20T11:04:25;47.85;;;23.38;;
69789;SDS011;57064;52.046;4.800;2022-11-20T11:06:57;46.75;;;23.50;;
69789;SDS011;57064;52.046;4.800;2022-11-20T11:09:32;51.08;;;22.95;;
69789;SDS011;57064;52.046;4.800;2022-11-20T11:12:07;41.88;;;22.25;;
69789;SDS011;57064;52.046;4.800;2022-11-20T11:14:44;56.38;;;24.88;;
69789;SDS011;57064;52.046;4.800;2022-11-20T11:17:24;55.38;;;23.25;;
69789;SDS011;57064;52.046;4.800;2022-11-20T11:25:21;52.38;;;26.25;;
69789;SDS011;57064;52.046;4.800;2022-11-20T11:27:52;64.38;;;26.27;;
69789;SDS011;57064;52.046;4.800;2022-11-20T11:30:21;60.10;;;25.70;;
69789;SDS011;57064;52.046;4.800;2022-11-20T11:32:49;54.47;;;24.15;;
69789;SDS011;57064;52.046;4.800;2022-11-20T11:35:19;50.67;;;24.98;;
69789;SDS011;57064;52.046;4.800;2022-11-20T11:37:47;58.85;;;25.52;;
69789;SDS011;57064;52.046;4.800;2022-11-20T11:40:15;55.70;;;25.02;;
69789;SDS011;57064;52.046;4.800;2022-11-20T11:42:57;59.42;;;25.23;;
69789;SDS011;57064;52.046;4.800;2022-11-20T11:45:26;57.28;;;24.15;;
69789;SDS011;57064;52.046;4.800;2022-11-20T11:47:52;44.97;;;23.10;;
69789;SDS011;57064;52.046;4.800;2022-11-20T11:50:22;58.22;;;23.75;;
69789;SDS011;57064;52.046;4.800;2022-11-20T11:53:02;51.90;;;23.80;;
69789;SDS011;57064;52.046;4.800;2022-11-20T12:04:02;58.72;;;23.10;;
69789;SDS011;57064;52.046;4.800;2022-11-20T12:06:34;54.92;;;23.88;;
69789;SDS011;57064;52.046;4.800;2022-11-20T12:09:04;49.15;;;22.15;;
69789;SDS011;57064;52.046;4.800;2022-11-20T12:17:07;52.63;;;22.52;;
69789;SDS011;57064;52.046;4.800;2022-11-20T12:19:38;59.00;;;24.63;;
69789;SDS011;57064;52.046;4.800;2022-11-20T12:24:57;54.80;;;23.63;;
69789;SDS011;57064;52.046;4.800;2022-11-20T12:30:15;54.03;;;23.00;;
69789;SDS011;57064;52.046;4.800;2022-11-20T12:47:49;59.90;;;24.17;;
69789;SDS011;57064;52.046;4.800;2022-11-20T12:50:36;61.03;;;25.90;;
69789;SDS011;57064;52.046;4.800;2022-11-20T12:56:21;57.38;;;25.13;;
69789;SDS011;57064;52.046;4.800;2022-11-20T13:01:58;62.90;;;24.50;;
69789;SDS011;57064;52.046;4.800;2022-11-20T13:07:14;68.43;;;26.70;;
69789;SDS011;57064;52.046;4.800;2022-11-20T13:09:43;61.70;;;25.27;;
69789;SDS011;57064;52.046;4.800;2022-11-20T13:12:15;65.95;;;26.60;;
69789;SDS011;57064;52.046;4.800;2022-11-20T13:17:45;58.35;;;23.30;;
69789;SDS011;57064;52.046;4.800;2022-11-20T13:20:17;65.18;;;26.10;;
69789;SDS011;57064;52.046;4.800;2022-11-20T13:22:45;65.22;;;25.98;;
69789;SDS011;57064;52.046;4.800;2022-11-20T13:25:24;64.40;;;26.48;;
69789;SDS011;57064;52.046;4.800;2022-11-20T13:27:55;64.43;;;25.65;;
69789;SDS011;57064;52.046;4.800;2022-11-20T13:30:23;65.20;;;27.60;;
69789;SDS011;57064;52.046;4.800;2022-11-20T13:32:58;65.75;;;26.13;;
69789;SDS011;57064;52.046;4.800;2022-11-20T13:35:37;69.75;;;27.58;;
69789;SDS011;57064;52.046;4.800;2022-11-20T13:40:58;70.35;;;28.27;;
69789;SDS011;57064;52.046;4.800;2022-11-20T13:43:42;73.40;;;27.90;;
69789;SDS011;57064;52.046;4.800;2022-11-20T13:46:11;74.15;;;28.35;;
69789;SDS011;57064;52.046;4.800;2022-11-20T14:00:02;70.07;;;28.00;;
69789;SDS011;57064;52.046;4.800;2022-11-20T14:02:45;63.75;;;26.38;;
69789;SDS011;57064;52.046;4.800;2022-11-20T14:08:17;84.45;;;28.63;;
69789;SDS011;57064;52.046;4.800;2022-11-20T14:11:03;72.63;;;29.10;;
69789;SDS011;57064;52.046;4.800;2022-11-20T14:13:30;81.30;;;31.92;;
69789;SDS011;57064;52.046;4.800;2022-11-20T14:15:56;84.53;;;30.92;;
69789;SDS011;57064;52.046;4.800;2022-11-20T14:18:24;80.88;;;30.33;;
69789;SDS011;57064;52.046;4.800;2022-11-20T14:20:51;81.55;;;31.98;;
69789;SDS011;57064;52.046;4.800;2022-11-20T14:23:24;91.28;;;34.05;;
69789;SDS011;57064;52.046;4.800;2022-11-20T14:25:52;80.70;;;31.25;;
69789;SDS011;57064;52.046;4.800;2022-11-20T14:28:21;93.50;;;33.65;;
69789;SDS011;57064;52.046;4.800;2022-11-20T14:30:52;85.07;;;32.38;;
69789;SDS011;57064;52.046;4.800;2022-11-20T14:33:18;97.97;;;32.20;;
69789;SDS011;57064;52.046;4.800;2022-11-20T14:35:50;95.50;;;35.60;;
69789;SDS011;57064;52.046;4.800;2022-11-20T14:38:20;92.22;;;33.40;;
69789;SDS011;57064;52.046;4.800;2022-11-20T14:40:49;85.00;;;32.00;;
69789;SDS011;57064;52.046;4.800;2022-11-20T14:43:23;77.85;;;31.17;;
69789;SDS011;57064;52.046;4.800;2022-11-20T14:46:03;91.63;;;34.75;;
69789;SDS011;57064;52.046;4.800;2022-11-20T14:48:41;90.93;;;32.92;;
69789;SDS011;57064;52.046;4.800;2022-11-20T14:51:31;83.13;;;32.50;;
69789;SDS011;57064;52.046;4.800;2022-11-20T14:54:19;82.50;;;30.85;;
69789;SDS011;57064;52.046;4.800;2022-11-20T14:56:54;88.18;;;35.47;;
69789;SDS011;57064;52.046;4.800;2022-11-20T14:59:25;79.00;;;34.30;;
69789;SDS011;57064;52.046;4.800;2022-11-20T15:04:48;85.10;;;32.13;;
69789;SDS011;57064;52.046;4.800;2022-11-20T15:07:25;83.30;;;35.20;;
69789;SDS011;57064;52.046;4.800;2022-11-20T15:12:32;81.90;;;36.33;;
69789;SDS011;57064;52.046;4.800;2022-11-20T15:15:01;89.82;;;35.08;;
69789;SDS011;57064;52.046;4.800;2022-11-20T15:17:28;85.78;;;33.72;;
69789;SDS011;57064;52.046;4.800;2022-11-20T15:19:55;95.13;;;36.28;;
69789;SDS011;57064;52.046;4.800;2022-11-20T15:22:21;88.07;;;34.33;;
69789;SDS011;57064;52.046;4.800;2022-11-20T15:24:47;94.07;;;34.90;;
69789;SDS011;57064;52.046;4.800;2022-11-20T15:27:13;94.25;;;35.53;;
69789;SDS011;57064;52.046;4.800;2022-11-20T15:29:40;80.82;;;33.75;;
69789;SDS011;57064;52.046;4.800;2022-11-20T15:32:07;87.68;;;34.78;;
69789;SDS011;57064;52.046;4.800;2022-11-20T15:34:34;81.18;;;34.67;;
69789;SDS011;57064;52.046;4.800;2022-11-20T15:37:00;93.80;;;36.10;;
69789;SDS011;57064;52.046;4.800;2022-11-20T15:39:26;93.97;;;37.28;;
69789;SDS011;57064;52.046;4.800;2022-11-20T15:41:52;110.00;;;37.40;;
69789;SDS011;57064;52.046;4.800;2022-11-20T15:44:18;100.15;;;36.72;;
69789;SDS011;57064;52.046;4.800;2022-11-20T15:46:44;98.07;;;37.55;;
69789;SDS011;57064;52.046;4.800;2022-11-20T15:49:15;100.32;;;36.10;;
69789;SDS011;57064;52.046;4.800;2022-11-20T15:54:12;90.22;;;34.45;;
69789;SDS011;57064;52.046;4.800;2022-11-20T15:56:41;80.10;;;33.10;;
69789;SDS011;57064;52.046;4.800;2022-11-20T15:59:07;94.85;;;31.67;;
69789;SDS011;57064;52.046;4.800;2022-11-20T16:01:33;82.65;;;32.22;;
69789;SDS011;57064;52.046;4.800;2022-11-20T16:03:59;70.95;;;25.83;;
69789;SDS011;57064;52.046;4.800;2022-11-20T16:06:26;81.63;;;32.63;;
69789;SDS011;57064;52.046;4.800;2022-11-20T16:08:52;86.35;;;32.83;;
69789;SDS011;57064;52.046;4.800;2022-11-20T16:11:18;90.60;;;32.85;;
69789;SDS011;57064;52.046;4.800;2022-11-20T16:13:44;75.63;;;30.10;;
69789;SDS011;57064;52.046;4.800;2022-11-20T16:16:29;73.57;;;30.73;;
69789;SDS011;57064;52.046;4.800;2022-11-20T16:19:00;75.35;;;28.40;;
69789;SDS011;57064;52.046;4.800;2022-11-20T16:21:28;78.85;;;30.33;;
69789;SDS011;57064;52.046;4.800;2022-11-20T16:24:04;73.65;;;28.25;;